Time;durP1;ratioP1;P1;durP2;ratioP2;P2;SDS_P1;SDS_P2;PMS_P1;PMS_P2;Temp;Humidity;BMP_temperature;BMP_pressure;BME280_temperature;BME280_humidity;BME280_pressure;Samples;Min_cycle;Max_cycle;Signal;HPM_P1;HPM_P2
2022/07/08 00:00:32;;;;;;;3.03;2.05;;;;;;;;;;5029555;28;20036;-56
2022/07/08 00:02:58;;;;;;;2.40;2.00;;;;;;;;;;5030765;28;20025;-56
2022/07/08 00:05:24;;;;;;;3.85;1.98;;;;;;;;;;5031794;28;20110;-56
2022/07/08 00:07:49;;;;;;;3.97;2.38;;;;;;;;;;5031996;28;20026;-55
2022/07/08 00:10:15;;;;;;;8.45;2.58;;;;;;;;;;5027901;28;20048;-56
2022/07/08 00:12:41;;;;;;;2.67;2.03;;;;;;;;;;5029156;28;20029;-56
2022/07/08 00:15:08;;;;;;;3.80;2.03;;;;;;;;;;5031179;28;20036;-56
2022/07/08 00:17:34;;;;;;;2.88;2.25;;;;;;;;;;5027557;28;20407;-56
2022/07/08 00:19:59;;;;;;;3.65;2.38;;;;;;;;;;5027542;28;20040;-56
2022/07/08 00:22:25;;;;;;;3.75;2.60;;;;;;;;;;5027995;28;20180;-56
2022/07/08 00:24:50;;;;;;;2.80;2.60;;;;;;;;;;5028267;28;20057;-56
2022/07/08 00:27:15;;;;;;;2.92;2.63;;;;;;;;;;5028188;28;20158;-55
2022/07/08 00:29:41;;;;;;;2.92;2.63;;;;;;;;;;5028110;28;20448;-56
2022/07/08 00:32:07;;;;;;;4.50;2.80;;;;;;;;;;5023576;28;20076;-56
2022/07/08 00:34:32;;;;;;;3.40;2.72;;;;;;;;;;5028599;28;20483;-56
2022/07/08 00:36:57;;;;;;;6.70;3.00;;;;;;;;;;5027064;28;20044;-56
2022/07/08 00:39:23;;;;;;;4.47;3.13;;;;;;;;;;5028072;28;20438;-56
2022/07/08 00:41:48;;;;;;;9.88;3.17;;;;;;;;;;5027218;28;20033;-56
2022/07/08 00:44:14;;;;;;;4.90;2.67;;;;;;;;;;5023412;28;20125;-56
2022/07/08 00:46:39;;;;;;;6.13;3.10;;;;;;;;;;5027551;28;20111;-56
2022/07/08 00:49:05;;;;;;;5.72;3.08;;;;;;;;;;5028479;28;20022;-57
2022/07/08 00:51:31;;;;;;;6.57;3.40;;;;;;;;;;5023949;28;20047;-57
2022/07/08 00:53:57;;;;;;;7.30;3.28;;;;;;;;;;5026639;28;20030;-57
2022/07/08 00:56:23;;;;;;;6.93;3.50;;;;;;;;;;5022266;28;20079;-57
2022/07/08 00:58:49;;;;;;;9.52;3.58;;;;;;;;;;5026766;28;20487;-57
2022/07/08 01:01:16;;;;;;;5.25;3.13;;;;;;;;;;5029497;28;20034;-56
2022/07/08 01:03:43;;;;;;;15.00;3.83;;;;;;;;;;5030863;28;20086;-57
2022/07/08 01:06:09;;;;;;;6.80;3.80;;;;;;;;;;5030684;28;20498;-55
2022/07/08 01:08:34;;;;;;;9.93;3.45;;;;;;;;;;5026868;28;20033;-57
2022/07/08 01:11:00;;;;;;;12.32;3.47;;;;;;;;;;5028964;28;20030;-57
2022/07/08 01:13:25;;;;;;;9.80;3.20;;;;;;;;;;5030168;28;20084;-56
2022/07/08 01:15:51;;;;;;;5.03;3.28;;;;;;;;;;5026839;28;20036;-56
2022/07/08 01:18:26;;;;;;;6.15;3.10;;;;;;;;;;5027323;28;20031;-57
2022/07/08 01:20:51;;;;;;;12.38;3.78;;;;;;;;;;5027458;28;20021;-57
2022/07/08 01:23:17;;;;;;;7.63;3.80;;;;;;;;;;5024196;28;20030;-57
2022/07/08 01:25:42;;;;;;;9.23;3.42;;;;;;;;;;5027335;28;20025;-57
2022/07/08 01:28:08;;;;;;;11.35;3.65;;;;;;;;;;5026583;28;20029;-57
2022/07/08 01:30:40;;;;;;;5.57;3.13;;;;;;;;;;5026692;28;20499;-57
2022/07/08 01:33:05;;;;;;;7.93;3.25;;;;;;;;;;5025103;28;20392;-57
2022/07/08 01:35:31;;;;;;;14.52;3.97;;;;;;;;;;5024968;28;20033;-57
2022/07/08 01:37:56;;;;;;;9.50;3.65;;;;;;;;;;5024553;28;20029;-57
2022/07/08 01:40:22;;;;;;;12.20;4.30;;;;;;;;;;5029127;28;20029;-57
2022/07/08 01:42:47;;;;;;;8.77;4.40;;;;;;;;;;5024500;28;20018;-57
2022/07/08 01:45:13;;;;;;;13.73;5.68;;;;;;;;;;5028942;28;20048;-58
2022/07/08 01:47:38;;;;;;;8.77;4.65;;;;;;;;;;5030074;28;20028;-57
2022/07/08 01:50:05;;;;;;;9.50;4.47;;;;;;;;;;5029179;28;20072;-56
2022/07/08 01:52:30;;;;;;;12.57;4.88;;;;;;;;;;5019049;28;20368;-57
2022/07/08 01:54:56;;;;;;;10.48;4.93;;;;;;;;;;5024789;28;20018;-57
2022/07/08 01:57:21;;;;;;;8.60;4.93;;;;;;;;;;5021045;28;20040;-57
2022/07/08 01:59:48;;;;;;;12.45;4.60;;;;;;;;;;5030509;28;20403;-58
2022/07/08 02:02:16;;;;;;;13.85;4.90;;;;;;;;;;5028264;28;20057;-57
2022/07/08 02:04:42;;;;;;;9.98;4.70;;;;;;;;;;5028916;28;20026;-57
2022/07/08 02:07:07;;;;;;;10.00;4.10;;;;;;;;;;5029815;28;20024;-58
2022/07/08 02:09:34;;;;;;;8.25;4.70;;;;;;;;;;5027593;28;20044;-57
2022/07/08 02:14:45;;;;;;;13.25;5.15;;;;;;;;;;5026641;28;20033;-56
2022/07/08 02:17:10;;;;;;;11.50;4.90;;;;;;;;;;5026770;28;20037;-56
2022/07/08 02:19:36;;;;;;;15.95;5.40;;;;;;;;;;5026110;28;20029;-57
2022/07/08 02:22:02;;;;;;;7.75;5.32;;;;;;;;;;5023112;28;20025;-57
2022/07/08 02:24:27;;;;;;;14.00;5.55;;;;;;;;;;5026282;28;20031;-57
2022/07/08 02:26:53;;;;;;;11.32;5.28;;;;;;;;;;5026173;28;20108;-56
2022/07/08 02:29:18;;;;;;;11.02;4.63;;;;;;;;;;5028668;28;20116;-56
2022/07/08 02:31:44;;;;;;;15.27;5.20;;;;;;;;;;5024077;28;20034;-57
2022/07/08 02:34:09;;;;;;;10.45;4.95;;;;;;;;;;5020660;28;20079;-56
2022/07/08 02:36:35;;;;;;;14.90;5.35;;;;;;;;;;5025995;28;20404;-56
2022/07/08 02:39:01;;;;;;;9.93;5.28;;;;;;;;;;5030460;28;20513;-56
2022/07/08 02:41:26;;;;;;;14.07;6.47;;;;;;;;;;5022501;28;20104;-57
2022/07/08 02:43:51;;;;;;;11.70;5.40;;;;;;;;;;5020422;28;20032;-56
2022/07/08 02:46:17;;;;;;;11.68;5.43;;;;;;;;;;5023298;28;20021;-56
2022/07/08 02:48:42;;;;;;;11.75;5.22;;;;;;;;;;5028572;28;20529;-56
2022/07/08 02:51:07;;;;;;;12.63;5.55;;;;;;;;;;5022009;28;20045;-56
2022/07/08 02:53:33;;;;;;;13.70;5.50;;;;;;;;;;5023393;28;20379;-56
2022/07/08 02:55:58;;;;;;;15.55;5.30;;;;;;;;;;5020497;28;20104;-56
2022/07/08 02:58:24;;;;;;;13.13;5.50;;;;;;;;;;5029904;28;20030;-56
2022/07/08 03:00:49;;;;;;;11.27;5.07;;;;;;;;;;5027601;28;20037;-57
2022/07/08 03:03:15;;;;;;;11.90;4.93;;;;;;;;;;5028735;28;20064;-56
2022/07/08 03:05:40;;;;;;;10.88;5.18;;;;;;;;;;5028467;28;20097;-56
2022/07/08 03:08:06;;;;;;;9.23;4.57;;;;;;;;;;5026096;28;20451;-56
2022/07/08 03:10:31;;;;;;;11.65;5.32;;;;;;;;;;5026389;28;20029;-56
2022/07/08 03:12:56;;;;;;;12.32;4.45;;;;;;;;;;5027117;28;20502;-56
2022/07/08 03:15:22;;;;;;;10.38;4.10;;;;;;;;;;5026524;28;20553;-56
2022/07/08 03:17:48;;;;;;;8.13;4.85;;;;;;;;;;5024921;28;20040;-57
2022/07/08 03:20:13;;;;;;;8.88;4.53;;;;;;;;;;5027618;28;20284;-56
2022/07/08 03:22:39;;;;;;;10.48;4.60;;;;;;;;;;5027299;28;20709;-56
2022/07/08 03:25:04;;;;;;;13.00;4.72;;;;;;;;;;5023228;28;20034;-56
2022/07/08 03:27:30;;;;;;;12.57;4.78;;;;;;;;;;5023152;28;20120;-57
2022/07/08 03:29:55;;;;;;;10.93;4.40;;;;;;;;;;5028593;28;20041;-57
2022/07/08 03:32:23;;;;;;;10.27;4.80;;;;;;;;;;5026838;28;20033;-56
2022/07/08 03:34:48;;;;;;;16.05;5.05;;;;;;;;;;5025688;28;20083;-57
2022/07/08 03:37:14;;;;;;;14.63;5.43;;;;;;;;;;5025949;28;20029;-56
2022/07/08 03:39:39;;;;;;;10.38;4.45;;;;;;;;;;5022646;28;20037;-56
2022/07/08 03:42:05;;;;;;;9.82;4.60;;;;;;;;;;5022599;28;20022;-57
2022/07/08 03:44:30;;;;;;;14.57;4.95;;;;;;;;;;5026329;28;20041;-56
2022/07/08 03:46:56;;;;;;;9.55;4.70;;;;;;;;;;5023186;28;21241;-56
2022/07/08 03:49:21;;;;;;;17.60;5.00;;;;;;;;;;5023989;28;20044;-56
2022/07/08 03:51:47;;;;;;;8.75;4.32;;;;;;;;;;5022060;28;20479;-56
2022/07/08 03:54:12;;;;;;;13.65;5.10;;;;;;;;;;5026868;28;20045;-56
2022/07/08 03:56:38;;;;;;;10.90;4.20;;;;;;;;;;5020840;28;20049;-56
2022/07/08 03:59:03;;;;;;;14.13;4.75;;;;;;;;;;5026190;28;20455;-56
2022/07/08 04:01:28;;;;;;;12.68;4.43;;;;;;;;;;5028692;28;20106;-56
2022/07/08 04:03:54;;;;;;;11.68;5.40;;;;;;;;;;5026588;28;20053;-56
2022/07/08 04:06:19;;;;;;;10.18;4.95;;;;;;;;;;5025403;28;20079;-56
2022/07/08 04:08:45;;;;;;;12.75;4.90;;;;;;;;;;5026226;28;20021;-56
2022/07/08 04:11:11;;;;;;;13.75;4.95;;;;;;;;;;5028201;28;20040;-56
2022/07/08 04:13:40;;;;;;;9.10;4.32;;;;;;;;;;5023304;28;20067;-57
2022/07/08 04:16:11;;;;;;;13.52;4.70;;;;;;;;;;5018084;28;20033;-56
2022/07/08 04:18:38;;;;;;;8.35;4.45;;;;;;;;;;5023169;28;20036;-56
2022/07/08 04:21:04;;;;;;;8.18;4.32;;;;;;;;;;5020193;28;20033;-56
2022/07/08 04:23:29;;;;;;;10.95;4.75;;;;;;;;;;5020648;28;20034;-56
2022/07/08 04:25:55;;;;;;;12.90;4.38;;;;;;;;;;5024914;28;20039;-57
2022/07/08 04:28:20;;;;;;;11.55;4.80;;;;;;;;;;5025848;28;20033;-56
2022/07/08 04:30:45;;;;;;;9.10;4.03;;;;;;;;;;5026090;28;20159;-56
2022/07/08 04:33:11;;;;;;;11.15;4.60;;;;;;;;;;5032587;28;20029;-56
2022/07/08 04:35:36;;;;;;;14.52;5.07;;;;;;;;;;5026573;28;20021;-56
2022/07/08 04:38:02;;;;;;;8.52;4.90;;;;;;;;;;5023415;28;20030;-55
2022/07/08 04:40:28;;;;;;;11.70;4.28;;;;;;;;;;5025481;28;20142;-57
2022/07/08 04:42:54;;;;;;;15.32;4.50;;;;;;;;;;5030348;28;20110;-56
2022/07/08 04:45:19;;;;;;;10.05;4.07;;;;;;;;;;5025790;28;20036;-56
2022/07/08 04:47:46;;;;;;;7.75;4.07;;;;;;;;;;5023962;28;20034;-56
2022/07/08 04:50:11;;;;;;;8.18;4.20;;;;;;;;;;5028055;28;20137;-56
2022/07/08 04:52:37;;;;;;;7.57;4.03;;;;;;;;;;5023701;28;20128;-57
2022/07/08 04:55:03;;;;;;;12.98;4.00;;;;;;;;;;5023677;28;20028;-56
2022/07/08 04:57:32;;;;;;;9.27;4.05;;;;;;;;;;5031452;28;20560;-56
2022/07/08 04:59:58;;;;;;;11.27;4.10;;;;;;;;;;5031511;28;20017;-56
2022/07/08 05:02:24;;;;;;;10.80;4.30;;;;;;;;;;5031189;28;20115;-56
2022/07/08 05:04:49;;;;;;;8.80;3.80;;;;;;;;;;5029323;28;20074;-58
2022/07/08 05:07:14;;;;;;;7.15;4.03;;;;;;;;;;5027812;28;20033;-59
2022/07/08 05:09:40;;;;;;;10.40;3.83;;;;;;;;;;5026837;28;20021;-59
2022/07/08 05:12:06;;;;;;;8.63;4.28;;;;;;;;;;5028852;28;20128;-59
2022/07/08 05:14:31;;;;;;;9.00;4.00;;;;;;;;;;5027587;28;20021;-58
2022/07/08 05:16:57;;;;;;;9.35;4.03;;;;;;;;;;5030868;28;20034;-58
2022/07/08 05:20:00;;;;;;;11.30;4.05;;;;;;;;;;5029089;28;20112;-59
2022/07/08 05:22:25;;;;;;;20.90;5.15;;;;;;;;;;5026340;28;20029;-58
2022/07/08 05:24:50;;;;;;;18.65;5.85;;;;;;;;;;5023068;28;20076;-59
2022/07/08 05:27:16;;;;;;;10.15;4.40;;;;;;;;;;5024299;28;20440;-58
2022/07/08 05:29:41;;;;;;;9.95;4.32;;;;;;;;;;5027227;28;20025;-58
2022/07/08 05:32:07;;;;;;;11.82;4.35;;;;;;;;;;5019328;28;20044;-58
2022/07/08 05:34:33;;;;;;;13.48;4.60;;;;;;;;;;5021746;28;20057;-58
2022/07/08 05:36:58;;;;;;;10.35;3.92;;;;;;;;;;5022162;28;20072;-58
2022/07/08 05:39:24;;;;;;;8.63;4.10;;;;;;;;;;5021161;28;20018;-59
2022/07/08 05:41:51;;;;;;;11.45;4.68;;;;;;;;;;5025874;28;20047;-58
2022/07/08 05:44:16;;;;;;;12.98;4.30;;;;;;;;;;5017428;28;20088;-59
2022/07/08 05:46:42;;;;;;;9.65;4.70;;;;;;;;;;5017686;28;20499;-58
2022/07/08 05:49:07;;;;;;;12.13;4.45;;;;;;;;;;5018302;28;20539;-59
2022/07/08 05:51:33;;;;;;;9.00;4.22;;;;;;;;;;5017792;28;20029;-58
2022/07/08 05:53:58;;;;;;;13.38;4.50;;;;;;;;;;5021890;28;20021;-59
2022/07/08 05:56:24;;;;;;;10.70;4.20;;;;;;;;;;5025516;28;20029;-59
2022/07/08 05:58:49;;;;;;;14.45;4.60;;;;;;;;;;5020404;28;20033;-56
2022/07/08 06:01:15;;;;;;;12.80;4.32;;;;;;;;;;5015717;28;20124;-56
2022/07/08 06:03:40;;;;;;;9.10;4.07;;;;;;;;;;5022325;28;20022;-56
2022/07/08 06:06:06;;;;;;;11.27;4.55;;;;;;;;;;5024631;28;20483;-56
2022/07/08 06:08:31;;;;;;;9.18;3.80;;;;;;;;;;5025750;28;20505;-55
2022/07/08 06:10:56;;;;;;;12.05;4.30;;;;;;;;;;5023046;28;20040;-55
2022/07/08 06:13:23;;;;;;;9.15;4.07;;;;;;;;;;5022594;28;20025;-55
2022/07/08 06:15:48;;;;;;;13.30;4.20;;;;;;;;;;5027966;28;20017;-56
2022/07/08 06:18:13;;;;;;;7.53;4.00;;;;;;;;;;5026228;28;20364;-56
2022/07/08 06:20:39;;;;;;;9.23;3.95;;;;;;;;;;5021771;28;20025;-56
2022/07/08 06:23:04;;;;;;;8.07;3.55;;;;;;;;;;5021538;28;20374;-56
2022/07/08 06:25:29;;;;;;;11.30;3.78;;;;;;;;;;5023318;28;20129;-56
2022/07/08 06:27:55;;;;;;;8.82;3.50;;;;;;;;;;5019760;28;20104;-57
2022/07/08 06:30:20;;;;;;;11.13;3.30;;;;;;;;;;5016630;28;20037;-56
2022/07/08 06:32:46;;;;;;;6.88;3.33;;;;;;;;;;5016357;28;20060;-57
2022/07/08 06:35:11;;;;;;;7.43;3.28;;;;;;;;;;5022342;28;20030;-56
2022/07/08 06:37:37;;;;;;;9.38;3.15;;;;;;;;;;5022402;28;20450;-56
2022/07/08 06:40:03;;;;;;;12.50;4.03;;;;;;;;;;5021871;28;20029;-57
2022/07/08 06:42:28;;;;;;;5.72;2.83;;;;;;;;;;5025623;28;20021;-57
2022/07/08 06:44:54;;;;;;;9.70;3.58;;;;;;;;;;5025313;28;20021;-57
2022/07/08 06:47:22;;;;;;;8.35;3.30;;;;;;;;;;5018811;28;20284;-56
2022/07/08 06:49:48;;;;;;;7.15;3.28;;;;;;;;;;5020063;28;20095;-56
2022/07/08 06:52:14;;;;;;;9.57;3.13;;;;;;;;;;5019720;28;20037;-56
2022/07/08 06:54:39;;;;;;;9.80;3.30;;;;;;;;;;5025148;28;20090;-56
2022/07/08 06:57:09;;;;;;;11.13;3.65;;;;;;;;;;5018666;28;20498;-56
2022/07/08 06:59:36;;;;;;;5.25;2.75;;;;;;;;;;5018236;28;20391;-56
2022/07/08 07:02:02;;;;;;;7.53;3.22;;;;;;;;;;5016900;28;20033;-57
2022/07/08 07:04:28;;;;;;;7.10;2.90;;;;;;;;;;5013748;28;20017;-56
2022/07/08 07:06:54;;;;;;;11.27;3.50;;;;;;;;;;5012660;28;20034;-56
2022/07/08 07:09:19;;;;;;;6.50;3.50;;;;;;;;;;5011538;28;20083;-57
2022/07/08 07:11:45;;;;;;;7.28;3.28;;;;;;;;;;5009162;28;20136;-56
2022/07/08 07:14:10;;;;;;;8.10;3.42;;;;;;;;;;5011275;28;20101;-56
2022/07/08 07:16:36;;;;;;;6.40;2.72;;;;;;;;;;5011495;28;20071;-56
2022/07/08 07:19:02;;;;;;;12.40;3.80;;;;;;;;;;5018218;28;20029;-56
2022/07/08 07:21:28;;;;;;;7.43;3.20;;;;;;;;;;5024358;28;20033;-57
2022/07/08 07:23:53;;;;;;;9.13;3.90;;;;;;;;;;5019850;28;20183;-56
2022/07/08 07:26:19;;;;;;;7.72;3.58;;;;;;;;;;5019312;28;20262;-57
2022/07/08 07:28:44;;;;;;;6.40;3.42;;;;;;;;;;5023963;28;20423;-55
2022/07/08 07:31:10;;;;;;;9.15;3.10;;;;;;;;;;5019124;28;20040;-57
2022/07/08 07:33:36;;;;;;;7.10;3.20;;;;;;;;;;5020435;28;20025;-56
2022/07/08 07:36:01;;;;;;;7.70;3.50;;;;;;;;;;5021126;28;20029;-56
2022/07/08 07:38:27;;;;;;;7.22;3.08;;;;;;;;;;5021608;28;20041;-56
2022/07/08 07:40:52;;;;;;;14.48;3.60;;;;;;;;;;5017587;28;20033;-56
2022/07/08 07:43:18;;;;;;;9.73;3.15;;;;;;;;;;5023576;28;20034;-56
2022/07/08 07:45:43;;;;;;;11.75;3.53;;;;;;;;;;5026490;28;20607;-56
2022/07/08 07:48:09;;;;;;;3.28;2.92;;;;;;;;;;5024103;28;20021;-56
2022/07/08 07:50:34;;;;;;;5.70;3.15;;;;;;;;;;5024629;28;20523;-55
2022/07/08 07:53:00;;;;;;;10.95;3.70;;;;;;;;;;5020734;28;20425;-57
2022/07/08 07:55:25;;;;;;;3.53;2.38;;;;;;;;;;5027255;28;20068;-56
2022/07/08 07:57:51;;;;;;;7.60;2.90;;;;;;;;;;5029842;28;20033;-56
2022/07/08 08:00:17;;;;;;;9.25;4.22;;;;;;;;;;5025751;28;20033;-56
2022/07/08 08:02:43;;;;;;;7.75;3.47;;;;;;;;;;5026884;28;20044;-56
2022/07/08 08:05:10;;;;;;;11.18;4.28;;;;;;;;;;5027676;28;20048;-56
2022/07/08 08:07:37;;;;;;;11.98;3.58;;;;;;;;;;5026803;28;20033;-56
2022/07/08 08:10:04;;;;;;;8.18;3.28;;;;;;;;;;5025264;28;20061;-56
2022/07/08 08:12:29;;;;;;;7.18;4.10;;;;;;;;;;5027732;28;20460;-55
2022/07/08 08:14:55;;;;;;;8.10;4.00;;;;;;;;;;5023052;28;20105;-55
2022/07/08 08:17:20;;;;;;;8.25;3.40;;;;;;;;;;5025179;28;20030;-56
2022/07/08 08:19:45;;;;;;;6.50;3.40;;;;;;;;;;5024457;28;20676;-57
2022/07/08 08:22:11;;;;;;;5.88;3.10;;;;;;;;;;5021467;28;20038;-55
2022/07/08 08:24:36;;;;;;;11.35;3.63;;;;;;;;;;5023727;28;20029;-56
2022/07/08 08:27:02;;;;;;;11.65;3.10;;;;;;;;;;5023264;28;20033;-55
2022/07/08 08:29:27;;;;;;;12.90;3.63;;;;;;;;;;5028454;28;20045;-56
2022/07/08 08:31:52;;;;;;;11.63;3.20;;;;;;;;;;5022659;28;20037;-56
2022/07/08 08:34:18;;;;;;;7.18;2.80;;;;;;;;;;5025751;28;20022;-57
2022/07/08 08:36:43;;;;;;;11.43;3.05;;;;;;;;;;5027839;28;20022;-56
2022/07/08 08:39:08;;;;;;;11.95;4.15;;;;;;;;;;5029459;28;20144;-57
2022/07/08 08:41:35;;;;;;;6.70;3.22;;;;;;;;;;5025609;28;20025;-57
2022/07/08 08:44:01;;;;;;;9.77;3.53;;;;;;;;;;5023316;28;20119;-56
2022/07/08 08:46:26;;;;;;;7.22;3.33;;;;;;;;;;5022612;28;20053;-56
2022/07/08 08:48:56;;;;;;;8.13;2.80;;;;;;;;;;5023753;28;20409;-55
2022/07/08 08:51:23;;;;;;;11.40;3.88;;;;;;;;;;5026956;28;20130;-55
2022/07/08 08:53:49;;;;;;;9.30;3.33;;;;;;;;;;5028797;28;20033;-55
2022/07/08 08:56:16;;;;;;;11.82;3.40;;;;;;;;;;5023948;28;20103;-56
2022/07/08 08:58:46;;;;;;;12.25;3.40;;;;;;;;;;5017822;28;20037;-56
2022/07/08 09:01:17;;;;;;;11.60;3.55;;;;;;;;;;5024570;28;20112;-56
2022/07/08 09:03:42;;;;;;;7.40;2.75;;;;;;;;;;5027774;28;20048;-56
2022/07/08 09:06:08;;;;;;;9.57;3.20;;;;;;;;;;5024017;28;20492;-56
2022/07/08 09:08:33;;;;;;;7.35;2.90;;;;;;;;;;5024868;28;20124;-56
2022/07/08 09:10:59;;;;;;;9.13;3.20;;;;;;;;;;5024054;28;20440;-55
2022/07/08 09:13:26;;;;;;;7.05;2.85;;;;;;;;;;5022324;28;20026;-56
2022/07/08 09:15:59;;;;;;;9.18;3.03;;;;;;;;;;5019883;28;20480;-55
2022/07/08 09:18:29;;;;;;;8.45;3.20;;;;;;;;;;5023196;28;20037;-55
2022/07/08 09:20:56;;;;;;;8.07;3.30;;;;;;;;;;5024870;28;20029;-56
2022/07/08 09:23:33;;;;;;;8.05;2.70;;;;;;;;;;5024487;28;20091;-55
2022/07/08 09:26:01;;;;;;;11.05;3.30;;;;;;;;;;5023908;28;20086;-56
2022/07/08 09:28:38;;;;;;;8.00;3.17;;;;;;;;;;5021661;28;20056;-55
2022/07/08 09:31:09;;;;;;;8.65;2.92;;;;;;;;;;5019166;28;20061;-56
2022/07/08 09:33:35;;;;;;;6.90;2.90;;;;;;;;;;5024531;28;20018;-55
2022/07/08 09:36:02;;;;;;;6.93;2.70;;;;;;;;;;5029597;28;20033;-56
2022/07/08 09:38:29;;;;;;;9.85;3.40;;;;;;;;;;5022595;28;20128;-56
2022/07/08 09:41:06;;;;;;;6.40;3.00;;;;;;;;;;5018369;28;20528;-56
2022/07/08 09:43:43;;;;;;;12.70;3.47;;;;;;;;;;5022546;28;20061;-57
2022/07/08 09:46:08;;;;;;;5.13;2.50;;;;;;;;;;5024244;28;20556;-55
2022/07/08 09:48:34;;;;;;;9.32;3.42;;;;;;;;;;5020513;28;20025;-56
2022/07/08 09:51:07;;;;;;;10.70;3.00;;;;;;;;;;5019799;28;20087;-56
2022/07/08 09:53:33;;;;;;;5.82;2.80;;;;;;;;;;5028464;28;20028;-56
2022/07/08 09:55:59;;;;;;;9.23;2.80;;;;;;;;;;5024970;28;20061;-56
2022/07/08 09:58:27;;;;;;;8.27;3.15;;;;;;;;;;5027222;28;20479;-56
2022/07/08 10:00:56;;;;;;;5.80;2.60;;;;;;;;;;5021886;28;20036;-57
2022/07/08 10:03:23;;;;;;;9.70;2.95;;;;;;;;;;5025770;28;20109;-56
2022/07/08 10:05:49;;;;;;;6.90;3.47;;;;;;;;;;5023929;28;20033;-56
2022/07/08 10:08:16;;;;;;;6.20;2.75;;;;;;;;;;5018706;28;20065;-56
2022/07/08 10:10:44;;;;;;;5.70;2.85;;;;;;;;;;5021056;28;20105;-57
2022/07/08 10:13:10;;;;;;;7.10;2.60;;;;;;;;;;5027765;28;20117;-57
2022/07/08 10:15:36;;;;;;;6.75;2.55;;;;;;;;;;5024897;28;20112;-57
2022/07/08 10:18:23;;;;;;;7.18;2.85;;;;;;;;;;5020896;28;20106;-56
2022/07/08 10:20:55;;;;;;;7.50;3.03;;;;;;;;;;5021860;28;20033;-56
2022/07/08 10:23:36;;;;;;;9.05;2.85;;;;;;;;;;5024372;28;20049;-56
2022/07/08 10:26:02;;;;;;;15.00;3.58;;;;;;;;;;5019408;28;20030;-56
2022/07/08 10:28:37;;;;;;;7.65;2.47;;;;;;;;;;5020932;28;20034;-56
2022/07/08 10:31:03;;;;;;;7.78;2.80;;;;;;;;;;5022834;28;20055;-56
2022/07/08 10:33:30;;;;;;;7.53;2.60;;;;;;;;;;5022887;28;20530;-57
2022/07/08 10:36:09;;;;;;;8.73;3.00;;;;;;;;;;5020241;28;20427;-56
2022/07/08 10:38:36;;;;;;;9.90;3.33;;;;;;;;;;5017518;28;20079;-57
2022/07/08 10:41:04;;;;;;;7.75;2.80;;;;;;;;;;5025469;28;20079;-52
2022/07/08 10:43:30;;;;;;;6.97;2.90;;;;;;;;;;5022537;28;20178;-54
2022/07/08 10:45:59;;;;;;;8.23;2.80;;;;;;;;;;5017163;28;20295;-55
2022/07/08 10:48:40;;;;;;;12.70;2.38;;;;;;;;;;5018350;28;20041;-56
2022/07/08 10:51:29;;;;;;;4.72;2.20;;;;;;;;;;5027100;28;20029;-56
2022/07/08 10:53:59;;;;;;;5.90;2.50;;;;;;;;;;5024071;28;20045;-56
2022/07/08 10:56:49;;;;;;;7.00;2.30;;;;;;;;;;5023246;28;20121;-57
2022/07/08 10:59:24;;;;;;;4.07;1.92;;;;;;;;;;5021167;28;20033;-57
2022/07/08 11:02:09;;;;;;;7.90;2.55;;;;;;;;;;5022455;28;20048;-57
2022/07/08 11:04:34;;;;;;;9.45;2.72;;;;;;;;;;5019945;28;20033;-56
2022/07/08 11:07:23;;;;;;;5.70;2.15;;;;;;;;;;5021706;28;20047;-56
2022/07/08 11:09:57;;;;;;;9.85;2.13;;;;;;;;;;5019618;28;20075;-55
2022/07/08 11:12:29;;;;;;;4.15;1.90;;;;;;;;;;5018060;28;20026;-53
2022/07/08 11:14:56;;;;;;;6.68;2.40;;;;;;;;;;5021465;28;20017;-60
2022/07/08 11:17:24;;;;;;;9.23;3.47;;;;;;;;;;5019281;28;20033;-61
2022/07/08 11:19:52;;;;;;;9.13;3.08;;;;;;;;;;5020271;28;20030;-63
2022/07/08 11:22:18;;;;;;;7.57;2.20;;;;;;;;;;5017047;28;20027;-61
2022/07/08 11:24:46;;;;;;;7.38;2.90;;;;;;;;;;5014896;28;20034;-61
2022/07/08 11:27:11;;;;;;;9.48;3.67;;;;;;;;;;5013671;28;20442;-60
2022/07/08 11:29:37;;;;;;;4.32;2.47;;;;;;;;;;5015691;28;20026;-61
2022/07/08 11:32:04;;;;;;;6.00;2.65;;;;;;;;;;5013604;28;20526;-62
2022/07/08 11:34:31;;;;;;;7.80;2.00;;;;;;;;;;5011128;28;20033;-62
2022/07/08 11:37:00;;;;;;;9.52;2.65;;;;;;;;;;5013133;28;20045;-61
2022/07/08 11:39:26;;;;;;;4.38;2.10;;;;;;;;;;5015165;28;20039;-62
2022/07/08 11:41:53;;;;;;;5.32;2.38;;;;;;;;;;5015244;28;20479;-61
2022/07/08 11:44:20;;;;;;;8.65;2.53;;;;;;;;;;5016498;28;20513;-61
2022/07/08 11:46:51;;;;;;;7.05;2.00;;;;;;;;;;5013093;28;20124;-61
2022/07/08 11:49:17;;;;;;;4.22;2.10;;;;;;;;;;5017144;28;20076;-61
2022/07/08 11:51:50;;;;;;;5.93;2.47;;;;;;;;;;5013310;28;20503;-61
2022/07/08 11:54:18;;;;;;;8.65;2.30;;;;;;;;;;5016377;28;20034;-62
2022/07/08 11:56:44;;;;;;;4.35;2.13;;;;;;;;;;5013784;28;20456;-61
2022/07/08 11:59:09;;;;;;;4.97;1.80;;;;;;;;;;5012189;28;20055;-61
2022/07/08 12:01:35;;;;;;;4.80;2.05;;;;;;;;;;5024144;28;20026;-61
2022/07/08 12:04:07;;;;;;;7.88;2.10;;;;;;;;;;5017462;28;20042;-62
2022/07/08 12:06:34;;;;;;;5.50;2.38;;;;;;;;;;5021377;28;20025;-62
2022/07/08 12:09:10;;;;;;;8.93;2.00;;;;;;;;;;5024806;28;20498;-61
2022/07/08 12:11:44;;;;;;;6.00;2.25;;;;;;;;;;5018121;28;20494;-62
2022/07/08 12:14:10;;;;;;;4.63;1.90;;;;;;;;;;5026074;28;20478;-62
2022/07/08 12:16:43;;;;;;;6.72;2.17;;;;;;;;;;5019509;28;20484;-62
2022/07/08 12:19:33;;;;;;;6.32;2.40;;;;;;;;;;5021584;28;20517;-61
2022/07/08 12:22:01;;;;;;;9.43;2.40;;;;;;;;;;5019211;28;20038;-61
2022/07/08 12:24:28;;;;;;;6.35;2.17;;;;;;;;;;5023824;28;20029;-62
2022/07/08 12:26:55;;;;;;;6.93;2.17;;;;;;;;;;5021792;28;20045;-61
2022/07/08 12:29:20;;;;;;;8.38;2.10;;;;;;;;;;5022159;28;20037;-62
2022/07/08 12:31:46;;;;;;;9.13;2.53;;;;;;;;;;5020399;28;20225;-62
2022/07/08 12:34:19;;;;;;;7.18;2.40;;;;;;;;;;5023956;28;20022;-61
2022/07/08 12:36:46;;;;;;;8.52;2.30;;;;;;;;;;5026420;28;20035;-61
2022/07/08 12:39:12;;;;;;;7.82;2.00;;;;;;;;;;5022520;28;20029;-60
2022/07/08 12:41:38;;;;;;;4.90;1.70;;;;;;;;;;5020982;28;20033;-61
2022/07/08 12:44:29;;;;;;;8.63;2.20;;;;;;;;;;5020834;28;20535;-61
2022/07/08 12:46:55;;;;;;;5.00;1.83;;;;;;;;;;5024988;28;20515;-61
2022/07/08 12:49:23;;;;;;;7.93;2.03;;;;;;;;;;5026889;28;20033;-61
2022/07/08 12:51:49;;;;;;;8.07;2.08;;;;;;;;;;5025388;28;20093;-60
2022/07/08 12:54:16;;;;;;;8.65;2.05;;;;;;;;;;5020439;28;20030;-60
2022/07/08 12:56:42;;;;;;;5.85;1.88;;;;;;;;;;5020551;28;20021;-62
2022/07/08 12:59:07;;;;;;;6.00;1.83;;;;;;;;;;5016043;28;20112;-61
2022/07/08 13:01:32;;;;;;;7.75;1.80;;;;;;;;;;5013023;28;20057;-61
2022/07/08 13:03:58;;;;;;;8.15;2.05;;;;;;;;;;5016750;28;20026;-61
2022/07/08 13:06:23;;;;;;;9.95;2.20;;;;;;;;;;5013257;28;20029;-61
2022/07/08 13:08:49;;;;;;;5.63;1.80;;;;;;;;;;5015629;28;20108;-61
2022/07/08 13:11:14;;;;;;;5.22;1.73;;;;;;;;;;5017643;28;20041;-61
2022/07/08 13:13:39;;;;;;;8.20;2.25;;;;;;;;;;5020346;28;20021;-61
2022/07/08 13:16:05;;;;;;;6.55;2.00;;;;;;;;;;5025382;28;20041;-61
2022/07/08 13:18:30;;;;;;;3.03;1.60;;;;;;;;;;5025161;28;20029;-60
2022/07/08 13:20:56;;;;;;;6.95;2.20;;;;;;;;;;5018854;28;20569;-61
2022/07/08 13:23:21;;;;;;;6.70;1.80;;;;;;;;;;5023251;28;20164;-60
2022/07/08 13:25:48;;;;;;;8.52;2.03;;;;;;;;;;5023883;28;20048;-61
2022/07/08 13:28:14;;;;;;;3.28;1.60;;;;;;;;;;5019504;28;20025;-61
2022/07/08 13:30:39;;;;;;;4.55;1.85;;;;;;;;;;5020609;28;20032;-61
2022/07/08 13:33:04;;;;;;;7.43;2.45;;;;;;;;;;5017243;28;20025;-61
2022/07/08 13:35:30;;;;;;;6.18;1.80;;;;;;;;;;5020756;28;20414;-61
2022/07/08 13:37:55;;;;;;;6.07;1.85;;;;;;;;;;5023204;28;20036;-60
2022/07/08 13:40:21;;;;;;;4.95;1.50;;;;;;;;;;5021219;28;20043;-61
2022/07/08 13:42:46;;;;;;;4.32;1.50;;;;;;;;;;5020894;28;20037;-61
2022/07/08 13:45:11;;;;;;;6.07;1.50;;;;;;;;;;5018995;28;20061;-61
2022/07/08 13:47:37;;;;;;;7.38;1.65;;;;;;;;;;5027099;28;20025;-61
2022/07/08 13:50:03;;;;;;;4.90;1.83;;;;;;;;;;5027781;28;20523;-61
2022/07/08 13:52:28;;;;;;;6.85;1.83;;;;;;;;;;5025842;28;20096;-60
2022/07/08 13:54:53;;;;;;;6.25;1.80;;;;;;;;;;5023465;28;20028;-61
2022/07/08 13:57:19;;;;;;;4.90;1.80;;;;;;;;;;5025424;28;20557;-61
2022/07/08 13:59:44;;;;;;;7.80;2.10;;;;;;;;;;5024479;28;20446;-61
2022/07/08 14:02:10;;;;;;;6.07;1.60;;;;;;;;;;5021790;28;20033;-61
2022/07/08 14:04:35;;;;;;;5.28;1.70;;;;;;;;;;5022723;28;20498;-61
2022/07/08 14:07:01;;;;;;;5.88;1.65;;;;;;;;;;5024370;28;20025;-61
2022/07/08 14:09:27;;;;;;;4.95;1.50;;;;;;;;;;5021952;28;20029;-60
2022/07/08 14:11:52;;;;;;;7.63;1.77;;;;;;;;;;5021286;28;20029;-61
2022/07/08 14:14:18;;;;;;;4.75;1.60;;;;;;;;;;5023824;28;20056;-61
2022/07/08 14:16:43;;;;;;;4.65;1.58;;;;;;;;;;5024690;28;20060;-61
2022/07/08 14:19:08;;;;;;;8.07;1.60;;;;;;;;;;5022654;28;20372;-60
2022/07/08 14:21:34;;;;;;;5.05;1.88;;;;;;;;;;5020475;28;20151;-61
2022/07/08 14:23:59;;;;;;;6.82;1.85;;;;;;;;;;5020749;28;20122;-61
2022/07/08 14:26:25;;;;;;;4.57;1.42;;;;;;;;;;5023132;28;20549;-61
2022/07/08 14:28:50;;;;;;;9.52;2.13;;;;;;;;;;5022290;28;20025;-60
2022/07/08 14:31:15;;;;;;;5.82;1.63;;;;;;;;;;5022837;28;20025;-61
2022/07/08 14:33:41;;;;;;;4.10;1.60;;;;;;;;;;5020381;28;20444;-61
2022/07/08 14:36:06;;;;;;;5.72;1.88;;;;;;;;;;5020970;28;20025;-61
2022/07/08 14:38:32;;;;;;;6.20;1.98;;;;;;;;;;5020609;28;20471;-61